AXI200 KMSP-KMIA
Flight info
| Callsign | AXI200 |
|---|---|
| Flight time | N/A |
| Altitude | 26000 |
| Route | RST1 ALO J233 CNOTA/N0476F270 J233 SKBOZ/N0480F410 Q19 HITMN ACORI FROGZ5 |
| Aircraft | C700/M-SBDGHM1RWXY/LB2 |
Departure
| Time | N/A |
|---|---|
| Airport | Minneapolis–Saint Paul International Airport / Wold–Chamberlain Field (KMSP) |
Arrival
| Time | 2026-05-05 01:47 |
|---|---|
| Airport | Miami International Airport (KMIA) |
| Time | Latitude | Longitude | Altitude | Speed | Heading |
|---|---|---|---|---|---|
| 2026-05-05 00:33 | 33.26266 | -86.13084 | 42013 ft | 521 kts | 179° |
| 2026-05-05 00:34 | 33.19108 | -86.11752 | 42009 ft | 520 kts | 179° |
| 2026-05-05 00:34 | 33.11922 | -86.10418 | 42009 ft | 519 kts | 179° |
| 2026-05-05 00:35 | 33.04795 | -86.09096 | 42003 ft | 518 kts | 180° |
| 2026-05-05 00:35 | 32.97661 | -86.07778 | 42001 ft | 520 kts | 180° |
| 2026-05-05 00:36 | 32.90494 | -86.06452 | 42008 ft | 522 kts | 180° |
| 2026-05-05 00:36 | 32.83312 | -86.05128 | 42009 ft | 523 kts | 180° |
| 2026-05-05 00:37 | 32.76112 | -86.03801 | 41995 ft | 523 kts | 180° |
| 2026-05-05 00:37 | 32.68920 | -86.02479 | 41995 ft | 523 kts | 180° |
| 2026-05-05 00:38 | 32.61734 | -86.01159 | 41990 ft | 522 kts | 180° |
| 2026-05-05 00:38 | 32.54551 | -85.99843 | 41967 ft | 522 kts | 180° |
| 2026-05-05 00:39 | 32.47383 | -85.98531 | 41988 ft | 521 kts | 180° |
| 2026-05-05 00:39 | 32.40226 | -85.97224 | 41994 ft | 520 kts | 180° |
| 2026-05-05 00:40 | 32.33065 | -85.95918 | 41994 ft | 520 kts | 180° |
| 2026-05-05 00:40 | 32.25916 | -85.94615 | 42003 ft | 519 kts | 180° |
| 2026-05-05 00:41 | 32.18749 | -85.93315 | 42007 ft | 523 kts | 180° |
| 2026-05-05 00:41 | 32.11536 | -85.92004 | 42022 ft | 526 kts | 180° |
| 2026-05-05 00:42 | 32.04307 | -85.90693 | 42029 ft | 525 kts | 180° |
| 2026-05-05 00:42 | 31.97104 | -85.89389 | 42027 ft | 522 kts | 180° |
| 2026-05-05 00:43 | 31.89921 | -85.88093 | 42028 ft | 523 kts | 180° |
| 2026-05-05 00:43 | 31.82749 | -85.86335 | 42028 ft | 536 kts | 169° |
| 2026-05-05 00:44 | 31.75957 | -85.82464 | 42007 ft | 552 kts | 151° |
| 2026-05-05 00:44 | 31.72902 | -85.79709 | 42228 ft | 550 kts | 141° |
| 2026-05-05 00:44 | 31.70214 | -85.76594 | 43019 ft | 541 kts | 136° |
| 2026-05-05 00:45 | 31.65127 | -85.69962 | 43007 ft | 551 kts | 134° |
| 2026-05-05 00:45 | 31.59949 | -85.63245 | 43021 ft | 558 kts | 135° |
| 2026-05-05 00:46 | 31.54717 | -85.56481 | 43030 ft | 559 kts | 134° |
| 2026-05-05 00:46 | 31.49514 | -85.49742 | 43054 ft | 556 kts | 135° |
| 2026-05-05 00:47 | 31.44327 | -85.43063 | 43056 ft | 553 kts | 135° |
| 2026-05-05 00:47 | 31.39141 | -85.36374 | 43057 ft | 550 kts | 135° |
| 2026-05-05 00:48 | 31.33981 | -85.29749 | 43045 ft | 551 kts | 135° |
| 2026-05-05 00:48 | 31.28844 | -85.23150 | 43039 ft | 553 kts | 135° |
| 2026-05-05 00:49 | 31.23644 | -85.16493 | 43049 ft | 555 kts | 135° |
| 2026-05-05 00:49 | 31.18400 | -85.09785 | 43044 ft | 556 kts | 135° |
| 2026-05-05 00:50 | 31.13210 | -85.03160 | 43041 ft | 555 kts | 135° |
| 2026-05-05 00:50 | 31.07979 | -84.96492 | 43026 ft | 551 kts | 136° |
| 2026-05-05 00:51 | 31.02850 | -84.89969 | 43025 ft | 548 kts | 136° |
| 2026-05-05 00:51 | 30.97689 | -84.83416 | 43031 ft | 549 kts | 136° |
| 2026-05-05 00:52 | 30.92511 | -84.76851 | 43023 ft | 552 kts | 136° |
| 2026-05-05 00:52 | 30.87302 | -84.70259 | 43026 ft | 554 kts | 136° |
| 2026-05-05 00:53 | 30.82082 | -84.63664 | 43033 ft | 553 kts | 136° |
| 2026-05-05 00:53 | 30.76893 | -84.57119 | 43029 ft | 548 kts | 136° |
| 2026-05-05 00:54 | 30.71744 | -84.50638 | 43027 ft | 545 kts | 136° |
| 2026-05-05 00:54 | 30.66587 | -84.44157 | 43030 ft | 547 kts | 136° |
| 2026-05-05 00:55 | 30.61406 | -84.37655 | 43031 ft | 550 kts | 136° |
| 2026-05-05 00:55 | 30.56198 | -84.31132 | 43036 ft | 552 kts | 136° |
| 2026-05-05 00:56 | 30.50987 | -84.24612 | 43042 ft | 548 kts | 136° |
| 2026-05-05 00:56 | 30.45836 | -84.18183 | 43039 ft | 541 kts | 136° |
| 2026-05-05 00:57 | 30.40714 | -84.11801 | 43031 ft | 542 kts | 137° |
| 2026-05-05 00:57 | 30.35063 | -84.06143 | 43036 ft | 533 kts | 153° |
| 2026-05-05 00:58 | 30.28661 | -84.01852 | 43051 ft | 533 kts | 156° |
| 2026-05-05 00:58 | 30.22226 | -83.97570 | 43039 ft | 533 kts | 156° |
| 2026-05-05 00:59 | 30.15788 | -83.93314 | 43041 ft | 533 kts | 156° |
| 2026-05-05 00:59 | 30.09352 | -83.89053 | 43054 ft | 532 kts | 156° |
| 2026-05-05 01:00 | 30.02971 | -83.84838 | 43050 ft | 525 kts | 157° |
| 2026-05-05 01:00 | 29.96642 | -83.80669 | 43000 ft | 524 kts | 157° |
| 2026-05-05 01:01 | 29.90293 | -83.76489 | 43053 ft | 528 kts | 157° |
| 2026-05-05 01:01 | 29.83882 | -83.72274 | 43057 ft | 532 kts | 157° |
| 2026-05-05 01:02 | 29.78502 | -83.68738 | 43049 ft | 530 kts | 157° |
| 2026-05-05 01:02 | 29.72112 | -83.64552 | 43040 ft | 527 kts | 157° |
| 2026-05-05 01:03 | 29.65757 | -83.60390 | 43023 ft | 524 kts | 157° |
| 2026-05-05 01:03 | 29.59391 | -83.56233 | 43029 ft | 529 kts | 157° |
| 2026-05-05 01:04 | 29.52966 | -83.52037 | 43042 ft | 533 kts | 157° |
| 2026-05-05 01:04 | 29.43366 | -83.45780 | 43037 ft | 524 kts | 158° |
| 2026-05-05 01:05 | 29.37042 | -83.41669 | 42993 ft | 522 kts | 158° |
| 2026-05-05 01:05 | 29.30693 | -83.37548 | 43034 ft | 528 kts | 158° |
| 2026-05-05 01:06 | 29.24228 | -83.33528 | 43035 ft | 525 kts | 163° |
| 2026-05-05 01:06 | 29.17559 | -83.30162 | 43039 ft | 523 kts | 163° |
| 2026-05-05 01:07 | 29.10940 | -83.26786 | 43035 ft | 520 kts | 164° |
| 2026-05-05 01:07 | 29.04346 | -83.23458 | 43028 ft | 518 kts | 164° |
| 2026-05-05 01:08 | 28.97726 | -83.20106 | 43030 ft | 523 kts | 164° |
| 2026-05-05 01:08 | 28.91044 | -83.16732 | 43039 ft | 526 kts | 164° |
| 2026-05-05 01:09 | 28.84324 | -83.13338 | 43037 ft | 521 kts | 164° |
| 2026-05-05 01:09 | 28.77733 | -83.10020 | 42968 ft | 515 kts | 164° |
| 2026-05-05 01:10 | 28.71167 | -83.06722 | 43028 ft | 518 kts | 164° |
| 2026-05-05 01:10 | 28.64565 | -83.03404 | 43033 ft | 524 kts | 164° |
| 2026-05-05 01:11 | 28.57835 | -83.00026 | 43039 ft | 524 kts | 164° |
| 2026-05-05 01:11 | 28.51185 | -82.96694 | 43034 ft | 521 kts | 164° |
| 2026-05-05 01:12 | 28.44577 | -82.93389 | 43023 ft | 518 kts | 164° |
| 2026-05-05 01:12 | 28.37940 | -82.90078 | 43026 ft | 523 kts | 164° |
| 2026-05-05 01:13 | 28.31242 | -82.86734 | 43029 ft | 527 kts | 164° |
| 2026-05-05 01:13 | 28.24543 | -82.83396 | 43025 ft | 525 kts | 164° |
| 2026-05-05 01:14 | 28.17872 | -82.80078 | 42978 ft | 522 kts | 164° |
| 2026-05-05 01:14 | 28.11179 | -82.76754 | 43053 ft | 523 kts | 165° |
| 2026-05-05 01:15 | 28.04491 | -82.73436 | 43063 ft | 525 kts | 164° |
| 2026-05-05 01:15 | 27.97648 | -82.71052 | 43054 ft | 506 kts | 179° |
| 2026-05-05 01:16 | 27.90718 | -82.69698 | 43054 ft | 505 kts | 180° |
| 2026-05-05 01:16 | 27.83808 | -82.68322 | 43041 ft | 503 kts | 180° |
| 2026-05-05 01:17 | 27.76909 | -82.66971 | 43030 ft | 503 kts | 180° |
| 2026-05-05 01:17 | 27.70020 | -82.65610 | 43029 ft | 502 kts | 180° |
| 2026-05-05 01:18 | 27.63130 | -82.64258 | 43025 ft | 502 kts | 180° |
| 2026-05-05 01:18 | 27.56247 | -82.62905 | 43020 ft | 502 kts | 180° |
| 2026-05-05 01:19 | 27.49384 | -82.61190 | 43018 ft | 510 kts | 174° |
| 2026-05-05 01:19 | 27.42510 | -82.59174 | 43015 ft | 511 kts | 175° |
| 2026-05-05 01:20 | 27.35601 | -82.57146 | 43043 ft | 514 kts | 174° |
| 2026-05-05 01:20 | 27.28671 | -82.55111 | 43042 ft | 515 kts | 174° |
| 2026-05-05 01:21 | 27.21699 | -82.53070 | 43022 ft | 513 kts | 174° |
| 2026-05-05 01:21 | 27.14790 | -82.51048 | 43017 ft | 512 kts | 174° |
| 2026-05-05 01:22 | 27.07896 | -82.49035 | 43013 ft | 512 kts | 174° |
| 2026-05-05 01:22 | 27.01006 | -82.47025 | 43024 ft | 512 kts | 174° |
| 2026-05-05 01:23 | 26.94142 | -82.44742 | 42796 ft | 525 kts | 166° |
| 2026-05-05 01:23 | 26.90825 | -82.42911 | 42102 ft | 534 kts | 156° |
| 2026-05-05 01:23 | 26.87777 | -82.40625 | 41414 ft | 530 kts | 148° |
| 2026-05-05 01:24 | 26.84942 | -82.37959 | 40721 ft | 532 kts | 144° |
| 2026-05-05 01:24 | 26.82144 | -82.35250 | 40020 ft | 530 kts | 144° |
| 2026-05-05 01:24 | 26.79351 | -82.32577 | 39320 ft | 527 kts | 144° |
| 2026-05-05 01:24 | 26.76566 | -82.29923 | 38609 ft | 525 kts | 144° |
| 2026-05-05 01:25 | 26.73801 | -82.27274 | 37883 ft | 521 kts | 144° |
| 2026-05-05 01:25 | 26.71061 | -82.24643 | 37197 ft | 518 kts | 143° |
| 2026-05-05 01:25 | 26.68317 | -82.22020 | 36522 ft | 520 kts | 143° |
| 2026-05-05 01:25 | 26.65554 | -82.19388 | 35827 ft | 526 kts | 143° |
| 2026-05-05 01:26 | 26.62712 | -82.16675 | 35125 ft | 533 kts | 142° |
| 2026-05-05 01:26 | 26.59875 | -82.13963 | 34421 ft | 540 kts | 142° |
| 2026-05-05 01:26 | 26.57009 | -82.11226 | 33670 ft | 543 kts | 142° |
| 2026-05-05 01:26 | 26.54141 | -82.08492 | 32944 ft | 540 kts | 142° |
| 2026-05-05 01:27 | 26.51330 | -82.05720 | 32238 ft | 538 kts | 140° |
| 2026-05-05 01:27 | 26.48565 | -82.02919 | 31526 ft | 536 kts | 140° |
| 2026-05-05 01:27 | 26.45793 | -82.00137 | 30824 ft | 536 kts | 140° |
| 2026-05-05 01:27 | 26.43016 | -81.97354 | 30116 ft | 537 kts | 140° |
| 2026-05-05 01:28 | 26.40240 | -81.94556 | 29355 ft | 535 kts | 140° |
| 2026-05-05 01:28 | 26.37502 | -81.91793 | 28651 ft | 528 kts | 140° |
| 2026-05-05 01:28 | 26.34797 | -81.89077 | 27959 ft | 520 kts | 141° |
| 2026-05-05 01:28 | 26.32130 | -81.86404 | 27275 ft | 511 kts | 141° |
| 2026-05-05 01:29 | 26.29518 | -81.83782 | 26603 ft | 498 kts | 141° |
| 2026-05-05 01:29 | 26.26990 | -81.81241 | 25976 ft | 480 kts | 141° |
| 2026-05-05 01:29 | 26.24699 | -81.78611 | 25352 ft | 467 kts | 132° |
| 2026-05-05 01:29 | 26.22834 | -81.75693 | 24748 ft | 460 kts | 123° |
| 2026-05-05 01:30 | 26.21362 | -81.72552 | 24152 ft | 457 kts | 117° |
| 2026-05-05 01:30 | 26.19987 | -81.69369 | 23545 ft | 456 kts | 117° |
| 2026-05-05 01:30 | 26.18604 | -81.66192 | 22897 ft | 454 kts | 118° |
| 2026-05-05 01:30 | 26.17231 | -81.63044 | 22298 ft | 449 kts | 118° |
| 2026-05-05 01:31 | 26.15880 | -81.59937 | 21708 ft | 443 kts | 118° |
| 2026-05-05 01:31 | 26.14549 | -81.56876 | 21126 ft | 436 kts | 118° |
| 2026-05-05 01:31 | 26.13232 | -81.53858 | 20552 ft | 431 kts | 118° |
| 2026-05-05 01:31 | 26.11931 | -81.50879 | 20006 ft | 425 kts | 118° |
| 2026-05-05 01:32 | 26.11061 | -81.48885 | 19616 ft | 422 kts | 118° |
| 2026-05-05 01:32 | 26.09786 | -81.45964 | 19063 ft | 418 kts | 118° |
| 2026-05-05 01:32 | 26.08522 | -81.43074 | 18504 ft | 414 kts | 119° |
| 2026-05-05 01:32 | 26.07272 | -81.40214 | 17913 ft | 408 kts | 119° |
| 2026-05-05 01:33 | 26.06042 | -81.37401 | 17378 ft | 401 kts | 118° |
| 2026-05-05 01:33 | 26.04834 | -81.34620 | 16850 ft | 395 kts | 118° |
| 2026-05-05 01:33 | 26.03644 | -81.31885 | 16333 ft | 391 kts | 118° |
| 2026-05-05 01:33 | 26.02460 | -81.29171 | 15818 ft | 389 kts | 118° |
| 2026-05-05 01:34 | 26.01283 | -81.26477 | 15304 ft | 386 kts | 118° |
| 2026-05-05 01:34 | 26.00115 | -81.23801 | 14799 ft | 383 kts | 118° |
| 2026-05-05 01:34 | 25.98956 | -81.21147 | 14279 ft | 379 kts | 118° |
| 2026-05-05 01:34 | 25.97809 | -81.18520 | 13786 ft | 377 kts | 118° |
| 2026-05-05 01:35 | 25.96668 | -81.15912 | 13266 ft | 374 kts | 118° |
| 2026-05-05 01:35 | 25.95537 | -81.13329 | 12771 ft | 370 kts | 118° |
| 2026-05-05 01:35 | 25.94421 | -81.10778 | 12287 ft | 365 kts | 118° |
| 2026-05-05 01:35 | 25.93320 | -81.08265 | 11808 ft | 356 kts | 118° |
| 2026-05-05 01:36 | 25.92263 | -81.05849 | 11347 ft | 340 kts | 118° |
| 2026-05-05 01:36 | 25.91254 | -81.03531 | 10906 ft | 327 kts | 117° |
| 2026-05-05 01:36 | 25.90380 | -81.01242 | 10484 ft | 316 kts | 116° |
| 2026-05-05 01:36 | 25.89532 | -80.99022 | 10074 ft | 308 kts | 116° |
| 2026-05-05 01:37 | 25.88695 | -80.96853 | 9653 ft | 303 kts | 116° |
| 2026-05-05 01:37 | 25.87869 | -80.94708 | 9245 ft | 301 kts | 116° |
| 2026-05-05 01:37 | 25.87050 | -80.92571 | 8884 ft | 299 kts | 115° |
| 2026-05-05 01:37 | 25.86240 | -80.90457 | 8617 ft | 297 kts | 115° |
| 2026-05-05 01:38 | 25.85427 | -80.88343 | 8359 ft | 298 kts | 115° |
| 2026-05-05 01:38 | 25.84611 | -80.86223 | 8096 ft | 299 kts | 115° |
| 2026-05-05 01:38 | 25.83795 | -80.84101 | 7826 ft | 298 kts | 115° |
| 2026-05-05 01:38 | 25.82984 | -80.81993 | 7558 ft | 295 kts | 115° |
| 2026-05-05 01:39 | 25.82182 | -80.79907 | 7292 ft | 292 kts | 115° |
| 2026-05-05 01:39 | 25.81386 | -80.77842 | 7028 ft | 290 kts | 115° |
| 2026-05-05 01:39 | 25.80595 | -80.75792 | 6764 ft | 288 kts | 115° |
| 2026-05-05 01:39 | 25.79811 | -80.73757 | 6504 ft | 286 kts | 114° |
| 2026-05-05 01:40 | 25.79045 | -80.71732 | 6232 ft | 284 kts | 111° |
| 2026-05-05 01:40 | 25.78646 | -80.69597 | 5965 ft | 283 kts | 95° |
| 2026-05-05 01:40 | 25.78692 | -80.67421 | 5716 ft | 282 kts | 87° |
| 2026-05-05 01:40 | 25.78796 | -80.65279 | 5465 ft | 282 kts | 88° |
| 2026-05-05 01:41 | 25.78892 | -80.63079 | 5215 ft | 281 kts | 88° |
| 2026-05-05 01:41 | 25.78984 | -80.60926 | 4959 ft | 278 kts | 88° |
| 2026-05-05 01:41 | 25.79077 | -80.58789 | 4615 ft | 275 kts | 88° |
| 2026-05-05 01:41 | 25.79166 | -80.56720 | 4288 ft | 263 kts | 88° |
| 2026-05-05 01:42 | 25.79251 | -80.54726 | 3978 ft | 254 kts | 88° |
| 2026-05-05 01:42 | 25.79334 | -80.52778 | 3681 ft | 245 kts | 87° |
| 2026-05-05 01:42 | 25.79415 | -80.50915 | 3394 ft | 238 kts | 87° |
| 2026-05-05 01:42 | 25.79493 | -80.49104 | 3108 ft | 232 kts | 87° |
| 2026-05-05 01:43 | 25.79567 | -80.47358 | 2923 ft | 219 kts | 87° |
| 2026-05-05 01:43 | 25.79636 | -80.45711 | 2667 ft | 209 kts | 87° |
| 2026-05-05 01:43 | 25.79705 | -80.44116 | 2413 ft | 205 kts | 87° |
| 2026-05-05 01:43 | 25.79769 | -80.42568 | 2152 ft | 184 kts | 87° |
| 2026-05-05 01:44 | 25.79829 | -80.41166 | 1921 ft | 177 kts | 86° |
| 2026-05-05 01:44 | 25.79883 | -80.39907 | 1693 ft | 154 kts | 88° |
| 2026-05-05 01:44 | 25.79929 | -80.38778 | 1509 ft | 142 kts | 88° |
| 2026-05-05 01:44 | 25.79976 | -80.37679 | 1327 ft | 140 kts | 86° |
| 2026-05-05 01:45 | 25.80019 | -80.36650 | 1139 ft | 125 kts | 85° |
| 2026-05-05 01:45 | 25.80056 | -80.35775 | 980 ft | 107 kts | 86° |
| 2026-05-05 01:45 | 25.80090 | -80.34953 | 866 ft | 108 kts | 86° |
| 2026-05-05 01:45 | 25.80126 | -80.34103 | 791 ft | 111 kts | 86° |
| 2026-05-05 01:46 | 25.80161 | -80.33223 | 635 ft | 111 kts | 86° |
| 2026-05-05 01:46 | 25.80206 | -80.32325 | 462 ft | 118 kts | 85° |
| 2026-05-05 01:46 | 25.80242 | -80.31438 | 312 ft | 112 kts | 86° |
| 2026-05-05 01:46 | 25.80263 | -80.30855 | 188 ft | 110 kts | 85° |
| 2026-05-05 01:47 | 25.80308 | -80.29714 | 12 ft | 93 kts | 86° |
| 2026-05-05 01:47 | 25.80325 | -80.29294 | 10 ft | 64 kts | 87° |
| 2026-05-05 01:47 | 25.80342 | -80.28905 | 10 ft | 40 kts | 87° |
| 2026-05-05 01:47 | 25.80372 | -80.28655 | 10 ft | 23 kts | 70° |
| 2026-05-05 01:48 | 25.80445 | -80.28577 | 9 ft | 10 kts | 349° |
| 2026-05-05 01:48 | 25.80462 | -80.28661 | 9 ft | 14 kts | 268° |
| 2026-05-05 01:48 | 25.80459 | -80.28754 | 9 ft | 13 kts | 268° |
| 2026-05-05 01:48 | 25.80455 | -80.28856 | 9 ft | 9 kts | 267° |
| 2026-05-05 01:49 | 25.80453 | -80.28909 | 9 ft | 6 kts | 268° |
| 2026-05-05 01:49 | 25.80452 | -80.28915 | 9 ft | 1 kts | 266° |
| 2026-05-05 01:49 | 25.80450 | -80.28964 | 9 ft | 10 kts | 266° |
| 2026-05-05 01:49 | 25.80458 | -80.29040 | 9 ft | 5 kts | 332° |
| 2026-05-05 01:50 | 25.80505 | -80.29045 | 9 ft | 9 kts | 355° |
| 2026-05-05 01:50 | 25.80545 | -80.29047 | 9 ft | 0 kts | 357° |
| 2026-05-05 01:50 | 25.80580 | -80.29015 | 9 ft | 10 kts | 34° |
| 2026-05-05 01:50 | 25.80617 | -80.29006 | 9 ft | 0 kts | 310° |